sensor_id;sensor_type;location;lat;lon;timestamp;P1;durP1;ratioP1;P2;durP2;ratioP2
23720;SDS011;42950;52.134;5.578;2023-12-04T00:00:33;30.30;;;16.90;;
23720;SDS011;42950;52.134;5.578;2023-12-04T00:02:58;27.95;;;17.20;;
23720;SDS011;42950;52.134;5.578;2023-12-04T00:05:24;30.92;;;18.25;;
23720;SDS011;42950;52.134;5.578;2023-12-04T00:07:50;31.25;;;18.70;;
23720;SDS011;42950;52.134;5.578;2023-12-04T00:10:15;31.02;;;18.63;;
23720;SDS011;42950;52.134;5.578;2023-12-04T00:12:41;30.83;;;18.67;;
23720;SDS011;42950;52.134;5.578;2023-12-04T00:15:06;29.77;;;18.60;;
23720;SDS011;42950;52.134;5.578;2023-12-04T00:17:32;29.45;;;18.80;;
23720;SDS011;42950;52.134;5.578;2023-12-04T00:19:58;30.33;;;18.00;;
23720;SDS011;42950;52.134;5.578;2023-12-04T00:22:24;28.35;;;17.98;;
23720;SDS011;42950;52.134;5.578;2023-12-04T00:24:49;28.70;;;18.02;;
23720;SDS011;42950;52.134;5.578;2023-12-04T00:27:15;28.42;;;17.15;;
23720;SDS011;42950;52.134;5.578;2023-12-04T00:29:40;29.67;;;18.35;;
23720;SDS011;42950;52.134;5.578;2023-12-04T00:32:07;28.83;;;18.02;;
23720;SDS011;42950;52.134;5.578;2023-12-04T00:34:32;28.13;;;17.10;;
23720;SDS011;42950;52.134;5.578;2023-12-04T00:36:58;28.73;;;17.63;;
23720;SDS011;42950;52.134;5.578;2023-12-04T00:39:23;31.35;;;18.98;;
23720;SDS011;42950;52.134;5.578;2023-12-04T00:41:49;30.23;;;18.88;;
23720;SDS011;42950;52.134;5.578;2023-12-04T00:44:14;31.75;;;19.13;;
23720;SDS011;42950;52.134;5.578;2023-12-04T00:46:40;31.27;;;18.40;;
23720;SDS011;42950;52.134;5.578;2023-12-04T00:49:05;34.40;;;19.08;;
23720;SDS011;42950;52.134;5.578;2023-12-04T00:51:36;34.13;;;20.27;;
23720;SDS011;42950;52.134;5.578;2023-12-04T00:54:03;29.52;;;18.88;;
23720;SDS011;42950;52.134;5.578;2023-12-04T00:56:29;32.67;;;20.45;;
23720;SDS011;42950;52.134;5.578;2023-12-04T00:58:54;31.95;;;19.55;;
23720;SDS011;42950;52.134;5.578;2023-12-04T01:01:20;32.53;;;19.10;;
23720;SDS011;42950;52.134;5.578;2023-12-04T01:03:45;32.03;;;19.92;;
23720;SDS011;42950;52.134;5.578;2023-12-04T01:06:19;34.13;;;20.50;;
23720;SDS011;42950;52.134;5.578;2023-12-04T01:08:48;36.08;;;21.50;;
23720;SDS011;42950;52.134;5.578;2023-12-04T01:11:15;35.25;;;20.98;;
23720;SDS011;42950;52.134;5.578;2023-12-04T01:13:41;35.92;;;20.67;;
23720;SDS011;42950;52.134;5.578;2023-12-04T01:16:07;33.60;;;20.55;;
23720;SDS011;42950;52.134;5.578;2023-12-04T01:18:33;36.22;;;21.30;;
23720;SDS011;42950;52.134;5.578;2023-12-04T01:20:58;33.00;;;20.85;;
23720;SDS011;42950;52.134;5.578;2023-12-04T01:23:24;35.83;;;21.27;;
23720;SDS011;42950;52.134;5.578;2023-12-04T01:25:50;35.95;;;21.55;;
23720;SDS011;42950;52.134;5.578;2023-12-04T01:28:15;37.63;;;21.33;;
23720;SDS011;42950;52.134;5.578;2023-12-04T01:30:41;33.58;;;20.80;;
23720;SDS011;42950;52.134;5.578;2023-12-04T01:33:06;34.60;;;20.10;;
23720;SDS011;42950;52.134;5.578;2023-12-04T01:35:33;33.40;;;20.20;;
23720;SDS011;42950;52.134;5.578;2023-12-04T01:37:58;34.42;;;19.88;;
23720;SDS011;42950;52.134;5.578;2023-12-04T01:40:24;33.25;;;19.85;;
23720;SDS011;42950;52.134;5.578;2023-12-04T01:42:51;32.85;;;20.02;;
23720;SDS011;42950;52.134;5.578;2023-12-04T01:45:16;32.50;;;20.30;;
23720;SDS011;42950;52.134;5.578;2023-12-04T01:47:42;32.10;;;19.50;;
23720;SDS011;42950;52.134;5.578;2023-12-04T01:50:08;33.38;;;20.55;;
23720;SDS011;42950;52.134;5.578;2023-12-04T01:52:34;35.30;;;20.25;;
23720;SDS011;42950;52.134;5.578;2023-12-04T01:55:01;34.30;;;20.05;;
23720;SDS011;42950;52.134;5.578;2023-12-04T01:57:27;34.75;;;20.30;;
23720;SDS011;42950;52.134;5.578;2023-12-04T01:59:53;34.20;;;20.42;;
23720;SDS011;42950;52.134;5.578;2023-12-04T02:02:19;33.63;;;20.05;;
23720;SDS011;42950;52.134;5.578;2023-12-04T02:04:45;34.85;;;19.35;;
23720;SDS011;42950;52.134;5.578;2023-12-04T02:07:11;33.60;;;19.85;;
23720;SDS011;42950;52.134;5.578;2023-12-04T02:09:37;35.75;;;18.92;;
23720;SDS011;42950;52.134;5.578;2023-12-04T02:12:03;36.30;;;20.15;;
23720;SDS011;42950;52.134;5.578;2023-12-04T02:14:29;30.88;;;19.17;;
23720;SDS011;42950;52.134;5.578;2023-12-04T02:16:54;31.25;;;18.77;;
23720;SDS011;42950;52.134;5.578;2023-12-04T02:19:23;30.23;;;18.52;;
23720;SDS011;42950;52.134;5.578;2023-12-04T02:21:49;34.92;;;19.85;;
23720;SDS011;42950;52.134;5.578;2023-12-04T02:24:14;34.20;;;19.45;;
23720;SDS011;42950;52.134;5.578;2023-12-04T02:26:53;30.75;;;18.70;;
23720;SDS011;42950;52.134;5.578;2023-12-04T02:29:33;29.42;;;18.77;;
23720;SDS011;42950;52.134;5.578;2023-12-04T02:32:07;33.03;;;19.30;;
23720;SDS011;42950;52.134;5.578;2023-12-04T02:34:36;29.90;;;18.17;;
23720;SDS011;42950;52.134;5.578;2023-12-04T02:37:05;27.40;;;17.10;;
23720;SDS011;42950;52.134;5.578;2023-12-04T02:39:31;28.38;;;17.63;;
23720;SDS011;42950;52.134;5.578;2023-12-04T02:41:57;32.88;;;17.88;;
23720;SDS011;42950;52.134;5.578;2023-12-04T02:44:22;28.60;;;17.85;;
23720;SDS011;42950;52.134;5.578;2023-12-04T02:46:48;29.02;;;17.90;;
23720;SDS011;42950;52.134;5.578;2023-12-04T02:49:14;29.80;;;18.05;;
23720;SDS011;42950;52.134;5.578;2023-12-04T02:51:42;28.33;;;17.15;;
23720;SDS011;42950;52.134;5.578;2023-12-04T02:54:08;28.17;;;17.40;;
23720;SDS011;42950;52.134;5.578;2023-12-04T02:56:33;31.48;;;18.27;;
23720;SDS011;42950;52.134;5.578;2023-12-04T02:58:59;29.85;;;17.20;;
23720;SDS011;42950;52.134;5.578;2023-12-04T03:01:24;26.40;;;16.58;;
23720;SDS011;42950;52.134;5.578;2023-12-04T03:03:50;31.63;;;18.38;;
23720;SDS011;42950;52.134;5.578;2023-12-04T03:06:15;28.10;;;17.60;;
23720;SDS011;42950;52.134;5.578;2023-12-04T03:08:41;28.38;;;16.73;;
23720;SDS011;42950;52.134;5.578;2023-12-04T03:11:07;27.98;;;16.98;;
23720;SDS011;42950;52.134;5.578;2023-12-04T03:13:33;26.55;;;16.50;;
23720;SDS011;42950;52.134;5.578;2023-12-04T03:15:59;28.65;;;17.27;;
23720;SDS011;42950;52.134;5.578;2023-12-04T03:18:25;25.48;;;15.75;;
23720;SDS011;42950;52.134;5.578;2023-12-04T03:20:51;25.98;;;16.40;;
23720;SDS011;42950;52.134;5.578;2023-12-04T03:23:17;27.05;;;16.67;;
23720;SDS011;42950;52.134;5.578;2023-12-04T03:25:42;24.98;;;15.93;;
23720;SDS011;42950;52.134;5.578;2023-12-04T03:28:08;25.95;;;15.65;;
23720;SDS011;42950;52.134;5.578;2023-12-04T03:30:33;27.13;;;16.08;;
23720;SDS011;42950;52.134;5.578;2023-12-04T03:32:59;25.35;;;15.32;;
23720;SDS011;42950;52.134;5.578;2023-12-04T03:35:24;22.92;;;14.85;;
23720;SDS011;42950;52.134;5.578;2023-12-04T03:37:50;23.23;;;15.27;;
23720;SDS011;42950;52.134;5.578;2023-12-04T03:40:16;25.40;;;15.13;;
23720;SDS011;42950;52.134;5.578;2023-12-04T03:42:41;25.33;;;15.20;;
23720;SDS011;42950;52.134;5.578;2023-12-04T03:45:07;24.38;;;15.23;;
23720;SDS011;42950;52.134;5.578;2023-12-04T03:47:33;23.30;;;14.20;;
23720;SDS011;42950;52.134;5.578;2023-12-04T03:49:58;24.17;;;15.48;;
23720;SDS011;42950;52.134;5.578;2023-12-04T03:52:24;21.15;;;14.20;;
23720;SDS011;42950;52.134;5.578;2023-12-04T03:54:49;22.05;;;14.20;;
23720;SDS011;42950;52.134;5.578;2023-12-04T03:57:15;22.67;;;14.45;;
23720;SDS011;42950;52.134;5.578;2023-12-04T03:59:40;22.90;;;14.30;;
23720;SDS011;42950;52.134;5.578;2023-12-04T04:02:06;21.20;;;14.05;;
23720;SDS011;42950;52.134;5.578;2023-12-04T04:04:31;22.02;;;14.27;;
23720;SDS011;42950;52.134;5.578;2023-12-04T04:06:57;21.95;;;14.07;;
23720;SDS011;42950;52.134;5.578;2023-12-04T04:09:23;20.27;;;13.65;;
23720;SDS011;42950;52.134;5.578;2023-12-04T04:11:48;21.90;;;14.10;;
23720;SDS011;42950;52.134;5.578;2023-12-04T04:14:14;22.25;;;14.05;;
23720;SDS011;42950;52.134;5.578;2023-12-04T04:16:39;18.92;;;13.07;;
23720;SDS011;42950;52.134;5.578;2023-12-04T04:19:07;21.65;;;14.50;;
23720;SDS011;42950;52.134;5.578;2023-12-04T04:21:32;20.15;;;13.70;;
23720;SDS011;42950;52.134;5.578;2023-12-04T04:23:59;22.13;;;14.20;;
23720;SDS011;42950;52.134;5.578;2023-12-04T04:26:24;21.63;;;13.85;;
23720;SDS011;42950;52.134;5.578;2023-12-04T04:28:50;24.00;;;14.27;;
23720;SDS011;42950;52.134;5.578;2023-12-04T04:31:15;23.67;;;14.57;;
23720;SDS011;42950;52.134;5.578;2023-12-04T04:33:41;21.58;;;14.05;;
23720;SDS011;42950;52.134;5.578;2023-12-04T04:36:08;23.17;;;14.23;;
23720;SDS011;42950;52.134;5.578;2023-12-04T04:38:34;21.40;;;13.63;;
23720;SDS011;42950;52.134;5.578;2023-12-04T04:41:00;22.92;;;14.90;;
23720;SDS011;42950;52.134;5.578;2023-12-04T04:43:25;21.77;;;13.70;;
23720;SDS011;42950;52.134;5.578;2023-12-04T04:45:51;18.90;;;12.95;;
23720;SDS011;42950;52.134;5.578;2023-12-04T04:48:17;21.48;;;13.93;;
23720;SDS011;42950;52.134;5.578;2023-12-04T04:50:42;21.45;;;14.35;;
23720;SDS011;42950;52.134;5.578;2023-12-04T04:53:08;22.05;;;14.10;;
23720;SDS011;42950;52.134;5.578;2023-12-04T04:55:33;21.98;;;14.20;;
23720;SDS011;42950;52.134;5.578;2023-12-04T04:57:59;20.25;;;13.30;;
23720;SDS011;42950;52.134;5.578;2023-12-04T05:00:25;20.38;;;13.00;;
23720;SDS011;42950;52.134;5.578;2023-12-04T05:02:50;21.67;;;13.25;;
23720;SDS011;42950;52.134;5.578;2023-12-04T05:05:16;20.02;;;13.50;;
23720;SDS011;42950;52.134;5.578;2023-12-04T05:07:41;22.45;;;13.57;;
23720;SDS011;42950;52.134;5.578;2023-12-04T05:10:07;19.00;;;13.15;;
23720;SDS011;42950;52.134;5.578;2023-12-04T05:12:33;20.50;;;12.80;;
23720;SDS011;42950;52.134;5.578;2023-12-04T05:14:58;18.38;;;12.27;;
23720;SDS011;42950;52.134;5.578;2023-12-04T05:17:24;18.90;;;12.70;;
23720;SDS011;42950;52.134;5.578;2023-12-04T05:19:49;19.40;;;13.05;;
23720;SDS011;42950;52.134;5.578;2023-12-04T05:22:15;18.98;;;13.98;;
23720;SDS011;42950;52.134;5.578;2023-12-04T05:24:41;19.88;;;13.43;;
23720;SDS011;42950;52.134;5.578;2023-12-04T05:27:06;18.35;;;12.30;;
23720;SDS011;42950;52.134;5.578;2023-12-04T05:29:32;18.63;;;12.45;;
23720;SDS011;42950;52.134;5.578;2023-12-04T05:31:57;18.73;;;12.65;;
23720;SDS011;42950;52.134;5.578;2023-12-04T05:34:23;18.30;;;12.63;;
23720;SDS011;42950;52.134;5.578;2023-12-04T05:36:49;18.95;;;12.75;;
23720;SDS011;42950;52.134;5.578;2023-12-04T05:39:14;18.25;;;12.85;;
23720;SDS011;42950;52.134;5.578;2023-12-04T05:41:40;18.17;;;12.02;;
23720;SDS011;42950;52.134;5.578;2023-12-04T05:44:05;18.90;;;12.00;;
23720;SDS011;42950;52.134;5.578;2023-12-04T05:46:31;21.15;;;12.27;;
23720;SDS011;42950;52.134;5.578;2023-12-04T05:48:57;17.40;;;12.48;;
23720;SDS011;42950;52.134;5.578;2023-12-04T05:51:23;17.33;;;11.82;;
23720;SDS011;42950;52.134;5.578;2023-12-04T05:53:48;19.25;;;12.48;;
23720;SDS011;42950;52.134;5.578;2023-12-04T05:56:14;18.75;;;12.57;;
23720;SDS011;42950;52.134;5.578;2023-12-04T05:58:40;17.15;;;12.05;;
23720;SDS011;42950;52.134;5.578;2023-12-04T06:01:05;18.38;;;12.55;;
23720;SDS011;42950;52.134;5.578;2023-12-04T06:03:34;16.70;;;11.75;;
23720;SDS011;42950;52.134;5.578;2023-12-04T06:05:59;18.63;;;12.23;;
23720;SDS011;42950;52.134;5.578;2023-12-04T06:08:25;16.73;;;11.73;;
23720;SDS011;42950;52.134;5.578;2023-12-04T06:10:51;16.33;;;11.77;;
23720;SDS011;42950;52.134;5.578;2023-12-04T06:13:16;17.55;;;11.75;;
23720;SDS011;42950;52.134;5.578;2023-12-04T06:15:42;17.88;;;12.00;;
23720;SDS011;42950;52.134;5.578;2023-12-04T06:18:08;15.43;;;11.50;;
23720;SDS011;42950;52.134;5.578;2023-12-04T06:20:33;17.27;;;12.00;;
23720;SDS011;42950;52.134;5.578;2023-12-04T06:22:59;16.13;;;11.60;;
23720;SDS011;42950;52.134;5.578;2023-12-04T06:25:25;17.83;;;11.80;;
23720;SDS011;42950;52.134;5.578;2023-12-04T06:27:51;18.38;;;11.95;;
23720;SDS011;42950;52.134;5.578;2023-12-04T06:30:17;17.08;;;12.27;;
23720;SDS011;42950;52.134;5.578;2023-12-04T06:32:43;16.85;;;11.52;;
23720;SDS011;42950;52.134;5.578;2023-12-04T06:35:09;15.55;;;11.35;;
23720;SDS011;42950;52.134;5.578;2023-12-04T06:37:36;14.93;;;10.90;;
23720;SDS011;42950;52.134;5.578;2023-12-04T06:40:05;16.60;;;11.27;;
23720;SDS011;42950;52.134;5.578;2023-12-04T06:42:33;18.92;;;10.98;;
23720;SDS011;42950;52.134;5.578;2023-12-04T06:45:00;15.70;;;10.98;;
23720;SDS011;42950;52.134;5.578;2023-12-04T06:47:26;17.00;;;11.60;;
23720;SDS011;42950;52.134;5.578;2023-12-04T06:49:53;14.90;;;10.57;;
23720;SDS011;42950;52.134;5.578;2023-12-04T06:52:18;15.95;;;11.02;;
23720;SDS011;42950;52.134;5.578;2023-12-04T06:54:47;17.00;;;10.95;;
23720;SDS011;42950;52.134;5.578;2023-12-04T06:57:13;16.80;;;11.13;;
23720;SDS011;42950;52.134;5.578;2023-12-04T06:59:41;16.10;;;11.75;;
23720;SDS011;42950;52.134;5.578;2023-12-04T07:02:07;15.35;;;10.93;;
23720;SDS011;42950;52.134;5.578;2023-12-04T07:04:33;17.10;;;10.88;;
23720;SDS011;42950;52.134;5.578;2023-12-04T07:06:59;14.73;;;10.93;;
23720;SDS011;42950;52.134;5.578;2023-12-04T07:09:30;15.05;;;10.50;;
23720;SDS011;42950;52.134;5.578;2023-12-04T07:11:56;14.98;;;10.82;;
23720;SDS011;42950;52.134;5.578;2023-12-04T07:14:22;15.35;;;10.52;;
23720;SDS011;42950;52.134;5.578;2023-12-04T07:16:48;15.80;;;10.27;;
23720;SDS011;42950;52.134;5.578;2023-12-04T07:19:14;13.27;;;10.10;;
23720;SDS011;42950;52.134;5.578;2023-12-04T07:21:41;13.77;;;9.52;;
23720;SDS011;42950;52.134;5.578;2023-12-04T07:24:07;15.00;;;9.95;;
23720;SDS011;42950;52.134;5.578;2023-12-04T07:26:34;14.35;;;10.00;;
23720;SDS011;42950;52.134;5.578;2023-12-04T07:29:00;13.73;;;9.73;;
23720;SDS011;42950;52.134;5.578;2023-12-04T07:31:26;12.95;;;9.52;;
23720;SDS011;42950;52.134;5.578;2023-12-04T07:33:55;15.50;;;9.70;;
23720;SDS011;42950;52.134;5.578;2023-12-04T07:36:21;15.30;;;9.50;;
23720;SDS011;42950;52.134;5.578;2023-12-04T07:38:47;14.55;;;9.45;;
23720;SDS011;42950;52.134;5.578;2023-12-04T07:41:14;14.40;;;9.70;;
23720;SDS011;42950;52.134;5.578;2023-12-04T07:43:40;12.48;;;9.38;;
23720;SDS011;42950;52.134;5.578;2023-12-04T07:46:05;12.43;;;9.32;;
23720;SDS011;42950;52.134;5.578;2023-12-04T07:48:31;12.85;;;9.10;;
23720;SDS011;42950;52.134;5.578;2023-12-04T07:50:56;12.68;;;9.10;;
23720;SDS011;42950;52.134;5.578;2023-12-04T07:53:22;14.00;;;10.10;;
23720;SDS011;42950;52.134;5.578;2023-12-04T07:55:48;15.35;;;9.70;;
23720;SDS011;42950;52.134;5.578;2023-12-04T07:58:16;13.52;;;9.20;;
23720;SDS011;42950;52.134;5.578;2023-12-04T08:00:42;11.57;;;8.77;;
23720;SDS011;42950;52.134;5.578;2023-12-04T08:03:08;12.55;;;9.30;;
23720;SDS011;42950;52.134;5.578;2023-12-04T08:05:34;11.80;;;8.98;;
23720;SDS011;42950;52.134;5.578;2023-12-04T08:08:00;12.95;;;9.75;;
23720;SDS011;42950;52.134;5.578;2023-12-04T08:10:25;11.90;;;8.40;;
23720;SDS011;42950;52.134;5.578;2023-12-04T08:12:51;13.48;;;8.85;;
23720;SDS011;42950;52.134;5.578;2023-12-04T08:15:16;11.63;;;9.00;;
23720;SDS011;42950;52.134;5.578;2023-12-04T08:17:42;12.30;;;9.10;;
23720;SDS011;42950;52.134;5.578;2023-12-04T08:20:07;12.80;;;8.93;;
23720;SDS011;42950;52.134;5.578;2023-12-04T08:22:38;11.45;;;8.68;;
23720;SDS011;42950;52.134;5.578;2023-12-04T08:25:05;13.77;;;9.68;;
23720;SDS011;42950;52.134;5.578;2023-12-04T08:27:32;10.88;;;7.63;;
23720;SDS011;42950;52.134;5.578;2023-12-04T08:29:57;13.05;;;9.30;;
23720;SDS011;42950;52.134;5.578;2023-12-04T08:32:23;12.63;;;8.38;;
23720;SDS011;42950;52.134;5.578;2023-12-04T08:34:51;12.18;;;8.70;;
23720;SDS011;42950;52.134;5.578;2023-12-04T08:37:17;11.57;;;8.32;;
23720;SDS011;42950;52.134;5.578;2023-12-04T08:39:45;12.45;;;8.45;;
23720;SDS011;42950;52.134;5.578;2023-12-04T08:42:11;11.07;;;8.80;;
23720;SDS011;42950;52.134;5.578;2023-12-04T08:44:36;13.25;;;9.02;;
23720;SDS011;42950;52.134;5.578;2023-12-04T08:47:03;12.10;;;8.90;;
23720;SDS011;42950;52.134;5.578;2023-12-04T08:49:29;12.30;;;8.68;;
23720;SDS011;42950;52.134;5.578;2023-12-04T08:51:55;14.77;;;8.98;;
23720;SDS011;42950;52.134;5.578;2023-12-04T08:54:21;12.15;;;8.63;;
23720;SDS011;42950;52.134;5.578;2023-12-04T08:56:46;11.40;;;7.85;;
23720;SDS011;42950;52.134;5.578;2023-12-04T08:59:12;12.23;;;8.98;;
23720;SDS011;42950;52.134;5.578;2023-12-04T09:01:38;11.05;;;8.00;;
23720;SDS011;42950;52.134;5.578;2023-12-04T09:04:04;10.25;;;7.78;;
23720;SDS011;42950;52.134;5.578;2023-12-04T09:06:29;11.70;;;8.15;;
23720;SDS011;42950;52.134;5.578;2023-12-04T09:08:55;9.73;;;7.90;;
23720;SDS011;42950;52.134;5.578;2023-12-04T09:11:21;12.10;;;8.60;;
23720;SDS011;42950;52.134;5.578;2023-12-04T09:13:46;12.10;;;8.93;;
23720;SDS011;42950;52.134;5.578;2023-12-04T09:16:12;12.02;;;8.77;;
23720;SDS011;42950;52.134;5.578;2023-12-04T09:18:38;10.50;;;7.20;;
23720;SDS011;42950;52.134;5.578;2023-12-04T09:21:04;11.05;;;7.85;;
23720;SDS011;42950;52.134;5.578;2023-12-04T09:23:30;11.00;;;7.85;;
23720;SDS011;42950;52.134;5.578;2023-12-04T09:25:55;9.68;;;7.68;;
23720;SDS011;42950;52.134;5.578;2023-12-04T09:28:21;12.13;;;7.70;;
23720;SDS011;42950;52.134;5.578;2023-12-04T09:30:47;9.55;;;7.20;;
23720;SDS011;42950;52.134;5.578;2023-12-04T09:33:13;11.18;;;7.80;;
23720;SDS011;42950;52.134;5.578;2023-12-04T09:35:38;9.82;;;7.85;;
23720;SDS011;42950;52.134;5.578;2023-12-04T09:38:04;10.32;;;7.50;;
23720;SDS011;42950;52.134;5.578;2023-12-04T09:40:29;10.27;;;7.95;;
23720;SDS011;42950;52.134;5.578;2023-12-04T09:42:55;10.32;;;7.70;;
23720;SDS011;42950;52.134;5.578;2023-12-04T09:45:21;10.68;;;7.78;;
23720;SDS011;42950;52.134;5.578;2023-12-04T09:47:49;9.65;;;7.45;;
23720;SDS011;42950;52.134;5.578;2023-12-04T09:50:16;10.25;;;7.60;;
23720;SDS011;42950;52.134;5.578;2023-12-04T09:52:47;10.60;;;7.93;;
23720;SDS011;42950;52.134;5.578;2023-12-04T09:55:15;10.65;;;7.32;;
23720;SDS011;42950;52.134;5.578;2023-12-04T09:57:41;9.45;;;7.20;;
23720;SDS011;42950;52.134;5.578;2023-12-04T10:00:09;9.57;;;7.32;;
23720;SDS011;42950;52.134;5.578;2023-12-04T10:02:36;10.02;;;7.82;;
23720;SDS011;42950;52.134;5.578;2023-12-04T10:05:02;10.82;;;7.40;;
23720;SDS011;42950;52.134;5.578;2023-12-04T10:07:30;10.75;;;7.10;;
23720;SDS011;42950;52.134;5.578;2023-12-04T10:09:56;8.63;;;6.88;;
23720;SDS011;42950;52.134;5.578;2023-12-04T10:12:22;9.30;;;6.88;;
23720;SDS011;42950;52.134;5.578;2023-12-04T10:17:35;9.95;;;6.50;;
23720;SDS011;42950;52.134;5.578;2023-12-04T10:20:06;9.00;;;6.53;;
23720;SDS011;42950;52.134;5.578;2023-12-04T10:22:37;11.95;;;6.65;;
23720;SDS011;42950;52.134;5.578;2023-12-04T10:25:16;11.20;;;6.43;;
23720;SDS011;42950;52.134;5.578;2023-12-04T10:27:43;6.95;;;5.82;;
23720;SDS011;42950;52.134;5.578;2023-12-04T10:30:09;9.50;;;6.60;;
23720;SDS011;42950;52.134;5.578;2023-12-04T10:32:46;9.98;;;6.43;;
23720;SDS011;42950;52.134;5.578;2023-12-04T10:35:12;8.00;;;6.35;;
23720;SDS011;42950;52.134;5.578;2023-12-04T10:37:38;7.80;;;6.32;;
23720;SDS011;42950;52.134;5.578;2023-12-04T10:40:04;10.27;;;6.80;;
23720;SDS011;42950;52.134;5.578;2023-12-04T10:42:34;9.70;;;7.63;;
23720;SDS011;42950;52.134;5.578;2023-12-04T10:45:00;9.70;;;7.30;;
23720;SDS011;42950;52.134;5.578;2023-12-04T10:47:26;11.57;;;7.28;;
23720;SDS011;42950;52.134;5.578;2023-12-04T10:49:53;9.50;;;7.43;;
23720;SDS011;42950;52.134;5.578;2023-12-04T10:52:20;10.52;;;7.20;;
23720;SDS011;42950;52.134;5.578;2023-12-04T10:54:46;9.90;;;7.72;;
23720;SDS011;42950;52.134;5.578;2023-12-04T10:57:12;10.38;;;7.47;;
23720;SDS011;42950;52.134;5.578;2023-12-04T10:59:51;11.23;;;7.82;;
23720;SDS011;42950;52.134;5.578;2023-12-04T11:02:26;10.48;;;7.95;;
23720;SDS011;42950;52.134;5.578;2023-12-04T11:04:58;12.18;;;8.00;;
23720;SDS011;42950;52.134;5.578;2023-12-04T11:07:28;10.70;;;7.97;;
23720;SDS011;42950;52.134;5.578;2023-12-04T11:09:55;10.13;;;8.10;;
23720;SDS011;42950;52.134;5.578;2023-12-04T11:12:25;10.02;;;7.88;;
23720;SDS011;42950;52.134;5.578;2023-12-04T11:14:56;12.95;;;8.40;;
23720;SDS011;42950;52.134;5.578;2023-12-04T11:17:24;13.20;;;8.25;;
23720;SDS011;42950;52.134;5.578;2023-12-04T11:20:11;12.25;;;9.15;;
23720;SDS011;42950;52.134;5.578;2023-12-04T11:22:41;10.43;;;8.10;;
23720;SDS011;42950;52.134;5.578;2023-12-04T11:25:10;10.85;;;8.43;;
23720;SDS011;42950;52.134;5.578;2023-12-04T11:27:38;11.45;;;8.60;;
23720;SDS011;42950;52.134;5.578;2023-12-04T11:30:04;12.30;;;9.65;;
23720;SDS011;42950;52.134;5.578;2023-12-04T11:32:32;12.27;;;8.82;;
23720;SDS011;42950;52.134;5.578;2023-12-04T11:35:17;11.20;;;8.43;;
23720;SDS011;42950;52.134;5.578;2023-12-04T11:37:43;12.95;;;8.70;;
23720;SDS011;42950;52.134;5.578;2023-12-04T11:40:12;11.85;;;9.32;;
23720;SDS011;42950;52.134;5.578;2023-12-04T11:42:39;12.77;;;9.18;;
23720;SDS011;42950;52.134;5.578;2023-12-04T11:45:05;12.57;;;9.32;;
23720;SDS011;42950;52.134;5.578;2023-12-04T11:47:48;12.15;;;9.27;;
23720;SDS011;42950;52.134;5.578;2023-12-04T11:50:15;15.68;;;9.55;;
23720;SDS011;42950;52.134;5.578;2023-12-04T11:52:40;13.80;;;9.25;;
23720;SDS011;42950;52.134;5.578;2023-12-04T11:55:07;12.43;;;9.23;;
23720;SDS011;42950;52.134;5.578;2023-12-04T11:57:35;12.40;;;9.02;;
23720;SDS011;42950;52.134;5.578;2023-12-04T12:00:08;12.32;;;8.63;;
23720;SDS011;42950;52.134;5.578;2023-12-04T12:02:39;12.82;;;9.30;;
23720;SDS011;42950;52.134;5.578;2023-12-04T12:05:11;12.38;;;9.27;;
23720;SDS011;42950;52.134;5.578;2023-12-04T12:07:37;12.70;;;9.27;;
23720;SDS011;42950;52.134;5.578;2023-12-04T12:10:03;12.52;;;9.45;;
23720;SDS011;42950;52.134;5.578;2023-12-04T12:12:29;13.73;;;9.95;;
23720;SDS011;42950;52.134;5.578;2023-12-04T12:14:57;13.10;;;8.80;;
23720;SDS011;42950;52.134;5.578;2023-12-04T12:17:22;13.10;;;9.57;;
23720;SDS011;42950;52.134;5.578;2023-12-04T12:19:48;12.43;;;9.07;;
23720;SDS011;42950;52.134;5.578;2023-12-04T12:22:14;12.82;;;9.23;;
23720;SDS011;42950;52.134;5.578;2023-12-04T12:24:39;11.85;;;9.20;;
23720;SDS011;42950;52.134;5.578;2023-12-04T12:27:05;11.77;;;9.05;;
23720;SDS011;42950;52.134;5.578;2023-12-04T12:29:30;12.27;;;9.32;;
23720;SDS011;42950;52.134;5.578;2023-12-04T12:31:56;12.18;;;9.40;;
23720;SDS011;42950;52.134;5.578;2023-12-04T12:34:21;13.70;;;9.18;;
23720;SDS011;42950;52.134;5.578;2023-12-04T12:36:47;15.30;;;9.77;;
23720;SDS011;42950;52.134;5.578;2023-12-04T12:39:13;13.77;;;9.32;;
23720;SDS011;42950;52.134;5.578;2023-12-04T12:41:45;16.10;;;9.30;;
23720;SDS011;42950;52.134;5.578;2023-12-04T12:44:13;11.50;;;8.85;;
23720;SDS011;42950;52.134;5.578;2023-12-04T12:46:40;14.52;;;9.38;;
23720;SDS011;42950;52.134;5.578;2023-12-04T12:49:06;13.15;;;9.63;;
23720;SDS011;42950;52.134;5.578;2023-12-04T12:51:31;11.77;;;8.95;;
23720;SDS011;42950;52.134;5.578;2023-12-04T12:53:57;12.65;;;9.40;;
23720;SDS011;42950;52.134;5.578;2023-12-04T12:56:24;13.70;;;9.05;;
23720;SDS011;42950;52.134;5.578;2023-12-04T12:58:51;12.38;;;9.13;;
23720;SDS011;42950;52.134;5.578;2023-12-04T13:01:19;12.57;;;9.45;;
23720;SDS011;42950;52.134;5.578;2023-12-04T13:03:47;13.45;;;9.15;;
23720;SDS011;42950;52.134;5.578;2023-12-04T13:06:13;13.80;;;9.57;;
23720;SDS011;42950;52.134;5.578;2023-12-04T13:08:38;13.95;;;9.68;;
23720;SDS011;42950;52.134;5.578;2023-12-04T13:11:04;13.07;;;9.77;;
23720;SDS011;42950;52.134;5.578;2023-12-04T13:13:30;15.65;;;9.63;;
23720;SDS011;42950;52.134;5.578;2023-12-04T13:15:57;18.85;;;9.60;;
23720;SDS011;42950;52.134;5.578;2023-12-04T13:18:23;14.77;;;9.38;;
23720;SDS011;42950;52.134;5.578;2023-12-04T13:20:49;12.88;;;9.55;;
23720;SDS011;42950;52.134;5.578;2023-12-04T13:23:14;10.75;;;8.65;;
23720;SDS011;42950;52.134;5.578;2023-12-04T13:25:40;12.55;;;8.68;;
23720;SDS011;42950;52.134;5.578;2023-12-04T13:28:05;14.50;;;9.10;;
23720;SDS011;42950;52.134;5.578;2023-12-04T13:30:31;13.10;;;8.32;;
23720;SDS011;42950;52.134;5.578;2023-12-04T13:32:59;11.70;;;9.02;;
23720;SDS011;42950;52.134;5.578;2023-12-04T13:35:25;11.95;;;8.73;;
23720;SDS011;42950;52.134;5.578;2023-12-04T13:37:50;11.07;;;8.38;;
23720;SDS011;42950;52.134;5.578;2023-12-04T13:40:20;14.63;;;9.40;;
23720;SDS011;42950;52.134;5.578;2023-12-04T13:42:46;11.73;;;9.02;;
23720;SDS011;42950;52.134;5.578;2023-12-04T13:45:30;12.65;;;9.15;;
23720;SDS011;42950;52.134;5.578;2023-12-04T13:47:56;11.80;;;9.15;;
23720;SDS011;42950;52.134;5.578;2023-12-04T13:50:22;13.35;;;9.10;;
23720;SDS011;42950;52.134;5.578;2023-12-04T13:52:47;13.57;;;9.10;;
23720;SDS011;42950;52.134;5.578;2023-12-04T13:55:20;13.52;;;9.25;;
23720;SDS011;42950;52.134;5.578;2023-12-04T13:57:56;14.50;;;10.07;;
23720;SDS011;42950;52.134;5.578;2023-12-04T14:00:35;13.75;;;9.05;;
23720;SDS011;42950;52.134;5.578;2023-12-04T14:03:01;12.23;;;9.20;;
23720;SDS011;42950;52.134;5.578;2023-12-04T14:05:32;11.23;;;8.73;;
23720;SDS011;42950;52.134;5.578;2023-12-04T14:07:59;12.43;;;8.85;;
23720;SDS011;42950;52.134;5.578;2023-12-04T14:10:25;12.65;;;8.98;;
23720;SDS011;42950;52.134;5.578;2023-12-04T14:12:52;11.27;;;9.05;;
23720;SDS011;42950;52.134;5.578;2023-12-04T14:15:17;11.50;;;8.50;;
23720;SDS011;42950;52.134;5.578;2023-12-04T14:17:44;11.63;;;8.48;;
23720;SDS011;42950;52.134;5.578;2023-12-04T14:20:11;13.68;;;9.40;;
23720;SDS011;42950;52.134;5.578;2023-12-04T14:22:41;12.40;;;9.38;;
23720;SDS011;42950;52.134;5.578;2023-12-04T14:25:08;13.45;;;8.95;;
23720;SDS011;42950;52.134;5.578;2023-12-04T14:27:34;13.23;;;9.80;;